00:32
Airports
History
Links
Donate
Help keep this website running!
PayPal
Bitcoin
Information on this page is community maintained and may be outdated or inaccurate and is intended for reference only or PC simulator navigating.
Always use approved charts for navigating.
ENSS
SVARTNES
SVARTNES (ENSS)
Finnmark, Norway (9950)
(C)
Lat/Lng:70° 21' 18.11" N / 31° 2' 45.87" E
70.355031 / 31.046076
Elevation:42'ft 13mMSL
ID / ICAO:ENSS
Runways:1
Longest:(15-33) 1,126.5m 3,696ft Asphalt
Controlled:Yes
Distance To
Airport ID:
Airport Radio Frequencies
Tower: 122.15
Nearby VORs <50NM
Nearby NDBs
METARUpdated 07-24-17 19:50 GMT
Altimeter: 30.18
Visibility: 0.3 statute miles
Wind: 8 knots (150°)
Temp: 8°c 46°f
Humidity: 100.0%

METAR: ENSS 241950Z 15008KT 0500 FG VV001 08/08 Q1022 RMK WIND 500FT 15008KT

(Powered by phpweather)
Runway 15 / 33
Dimensions:1126.5 x 29.9m 3696' x 98'ft
Surface:Asphalt
Edge Lights:High intensity
Runway 15 [A]Runway 33 [B]
Heading:163°TH 343°TH
Lat:
Lng:
70° 21' 35.57"N
31° 2' 30.29"E
70° 21' 0.66"N
31° 3' 1.46"E
User Notes and Comments
Google Map
Nearby Airports
(C) Vadso 34.5 NM
ENVD SW 234°
(C) BATSFJORD 35.5 NM
ENBS WNW 298°
(C) HOYBUKTMOEN 51.3 NM
ENKR SSW 212°
(C) Berlevaag 58.3 NM
ENBV NW 307°
(C) Mehamn 87.0 NM
ENMH WNW 302°
(C) Murmansk 116.2 NM
ULMM (WX) SSE 159°
(C) Honningsvaag Valan 124.2 NM
ENHV (WX) WNW 291°
VFR Chart
Flight Planning at SkyVector.com